createdAt,value
2019-01-19T00:01:17.430Z,62.87
2019-01-19T00:04:07.113Z,51.93
2019-01-19T00:06:39.309Z,56.90
2019-01-19T00:09:11.548Z,54.30
2019-01-19T00:11:46.848Z,53.47
2019-01-19T00:14:19.560Z,54.00
2019-01-19T00:17:04.524Z,53.30
2019-01-19T00:19:54.636Z,59.80
2019-01-19T00:22:33.031Z,55.60
2019-01-19T00:25:23.305Z,54.83
2019-01-19T00:27:58.058Z,54.33
2019-01-19T00:30:42.779Z,54.97
2019-01-19T00:33:21.209Z,54.63
2019-01-19T00:36:03.176Z,60.43
2019-01-19T00:39:08.737Z,53.63
2019-01-19T00:41:46.654Z,50.83
2019-01-19T00:44:38.609Z,57.10
2019-01-19T00:47:25.926Z,57.83
2019-01-19T00:49:58.179Z,57.60
2019-01-19T00:52:34.925Z,59.13
2019-01-19T00:55:22.070Z,51.87
2019-01-19T00:58:10.018Z,48.80
2019-01-19T01:01:13.672Z,58.73
2019-01-19T01:04:05.547Z,49.73
2019-01-19T01:06:46.481Z,52.63
2019-01-19T01:09:31.464Z,47.77
2019-01-19T01:12:20.951Z,47.93
2019-01-19T01:15:02.929Z,49.50
2019-01-19T01:17:35.623Z,46.70
2019-01-19T01:20:20.361Z,56.00
2019-01-19T01:23:02.069Z,55.07
2019-01-19T01:25:40.196Z,63.93
2019-01-19T01:28:29.217Z,60.03
2019-01-19T01:31:10.733Z,62.43
2019-01-19T01:33:58.447Z,62.40
2019-01-19T01:36:46.566Z,69.73
2019-01-19T01:39:21.817Z,57.83
2019-01-19T01:42:00.171Z,67.00
2019-01-19T01:44:50.765Z,58.67
2019-01-19T01:47:36.005Z,63.93
2019-01-19T01:50:24.138Z,60.10
2019-01-19T01:53:08.911Z,60.87
2019-01-19T01:55:39.261Z,70.03
2019-01-19T01:58:11.433Z,68.73
2019-01-19T02:00:50.832Z,70.27
2019-01-19T02:03:43.065Z,67.67
2019-01-19T02:06:37.447Z,68.53
2019-01-19T02:09:29.712Z,64.80
2019-01-19T02:12:27.986Z,64.33
2019-01-19T02:15:17.348Z,60.07
2019-01-19T02:18:08.229Z,53.00
2019-01-19T02:20:49.643Z,55.47
2019-01-19T02:23:29.441Z,56.53
2019-01-19T02:26:18.185Z,51.43
2019-01-19T02:29:16.315Z,53.67
2019-01-19T02:31:48.765Z,60.23
2019-01-19T02:34:36.414Z,60.13
2019-01-19T02:37:25.554Z,68.17
2019-01-19T02:40:01.429Z,66.33
2019-01-19T02:42:42.993Z,61.33
2019-01-19T02:45:30.364Z,66.67
2019-01-19T02:48:20.940Z,68.83
2019-01-19T02:50:58.933Z,64.90
2019-01-19T02:53:43.603Z,66.77
2019-01-19T02:56:19.245Z,64.97
2019-01-19T02:59:12.546Z,60.83
2019-01-19T03:01:51.678Z,62.83
2019-01-19T03:04:24.422Z,55.30
2019-01-19T03:07:06.092Z,60.93
2019-01-19T03:10:02.549Z,62.60
2019-01-19T03:12:41.331Z,68.30
2019-01-19T03:15:38.489Z,67.23
2019-01-19T03:18:13.364Z,66.90
2019-01-19T03:20:54.992Z,65.57
2019-01-19T03:23:48.922Z,69.63
2019-01-19T03:26:27.514Z,64.37
2019-01-19T03:29:33.344Z,60.40
2019-01-19T03:32:17.410Z,67.23
2019-01-19T03:34:50.705Z,67.40
2019-01-19T03:37:37.698Z,59.30
2019-01-19T03:40:38.098Z,58.27
2019-01-19T03:43:22.708Z,61.60
2019-01-19T03:46:20.101Z,66.67
2019-01-19T03:49:01.476Z,59.53
2019-01-19T03:51:39.654Z,55.23
2019-01-19T03:54:27.053Z,71.63
2019-01-19T03:57:08.172Z,62.77
2019-01-19T03:59:58.088Z,58.30
2019-01-19T04:02:42.892Z,59.90
2019-01-19T04:05:24.300Z,54.27
2019-01-19T04:08:02.388Z,56.97
2019-01-19T04:10:37.857Z,57.77
2019-01-19T04:13:18.876Z,54.00
2019-01-19T04:16:16.238Z,54.10
2019-01-19T04:18:57.499Z,49.20
2019-01-19T04:21:48.463Z,47.40
2019-01-19T04:24:23.557Z,43.37
2019-01-19T04:26:53.329Z,42.43
2019-01-19T04:29:23.158Z,45.57
2019-01-19T04:31:53.217Z,44.20
2019-01-19T04:34:22.773Z,41.60
2019-01-19T04:36:53.042Z,39.50
2019-01-19T04:39:23.122Z,44.07
2019-01-19T04:41:53.322Z,41.80
2019-01-19T04:44:22.961Z,37.20
2019-01-19T04:46:53.000Z,44.00
2019-01-19T04:49:22.965Z,38.37
2019-01-19T04:51:52.578Z,43.67
2019-01-19T04:54:22.311Z,38.63
2019-01-19T04:56:52.010Z,42.93
2019-01-19T04:59:21.712Z,42.90
2019-01-19T05:01:51.460Z,42.83
2019-01-19T05:04:20.927Z,43.37
2019-01-19T05:06:50.382Z,46.37
2019-01-19T05:09:20.790Z,49.80
2019-01-19T05:11:50.468Z,47.30
2019-01-19T05:14:20.094Z,47.13
2019-01-19T05:16:49.630Z,47.47
2019-01-19T05:19:19.181Z,50.17
2019-01-19T05:21:49.058Z,55.07
2019-01-19T05:24:18.749Z,46.33
2019-01-19T05:26:48.321Z,55.23
2019-01-19T05:29:18.930Z,58.50
2019-01-19T05:31:48.814Z,61.47
2019-01-19T05:34:18.636Z,60.13
2019-01-19T05:36:48.366Z,63.33
2019-01-19T05:39:18.228Z,66.60
2019-01-19T05:41:47.794Z,69.83
2019-01-19T05:44:17.263Z,68.13
2019-01-19T05:46:47.006Z,68.87
2019-01-19T05:49:16.724Z,64.97
2019-01-19T05:51:46.089Z,65.50
2019-01-19T05:54:15.777Z,61.60
2019-01-19T05:56:45.461Z,65.27
2019-01-19T05:59:14.839Z,61.63
2019-01-19T06:01:45.025Z,64.47
2019-01-19T06:04:14.843Z,58.00
2019-01-19T06:06:47.077Z,59.20
2019-01-19T06:09:16.177Z,56.80
2019-01-19T06:11:45.516Z,51.37
2019-01-19T06:14:15.409Z,53.97
2019-01-19T06:16:45.471Z,60.80
2019-01-19T06:19:15.225Z,60.73
2019-01-19T06:21:46.741Z,65.67
2019-01-19T06:24:16.404Z,68.50
2019-01-19T06:26:46.009Z,70.10
2019-01-19T06:29:15.974Z,78.20
2019-01-19T06:31:46.946Z,79.10
2019-01-19T06:34:16.473Z,68.53
2019-01-19T06:36:46.169Z,69.50
2019-01-19T06:39:15.994Z,64.23
2019-01-19T06:41:45.719Z,61.33
2019-01-19T06:44:15.510Z,54.83
2019-01-19T06:46:45.697Z,62.53
2019-01-19T06:49:16.517Z,65.43
2019-01-19T06:51:46.070Z,64.80
2019-01-19T06:54:16.041Z,68.70
2019-01-19T06:56:45.542Z,67.27
2019-01-19T06:59:17.482Z,73.87
2019-01-19T07:01:46.512Z,62.83
2019-01-19T07:04:16.067Z,69.00
2019-01-19T07:06:45.861Z,68.57
2019-01-19T07:09:15.577Z,63.83
2019-01-19T07:11:45.584Z,64.93
2019-01-19T07:14:15.845Z,61.07
2019-01-19T07:16:45.753Z,72.37
2019-01-19T07:19:15.209Z,64.60
2019-01-19T07:21:45.435Z,68.33
2019-01-19T07:24:15.093Z,87.63
2019-01-19T07:26:45.149Z,85.83
2019-01-19T07:29:14.757Z,86.83
2019-01-19T07:31:44.345Z,82.73
2019-01-19T07:34:14.817Z,79.30
2019-01-19T07:36:44.507Z,78.00
2019-01-19T07:39:14.041Z,82.17
2019-01-19T07:41:43.874Z,83.73
2019-01-19T07:44:13.556Z,88.40
2019-01-19T07:46:43.341Z,94.70
2019-01-19T07:49:13.042Z,90.33
2019-01-19T07:51:42.705Z,92.60
2019-01-19T07:54:12.337Z,88.23
2019-01-19T07:56:42.713Z,100.50
2019-01-19T07:59:12.404Z,107.70
2019-01-19T08:01:42.233Z,95.23
2019-01-19T08:04:11.708Z,99.93
2019-01-19T08:06:41.209Z,107.53
2019-01-19T08:09:12.810Z,103.00
2019-01-19T08:11:49.831Z,127.13
2019-01-19T08:14:19.405Z,137.97
2019-01-19T08:16:48.793Z,135.83
2019-01-19T08:19:18.456Z,121.90
2019-01-19T08:21:48.265Z,128.70
2019-01-19T08:24:18.316Z,204.03
2019-01-19T08:26:47.901Z,161.63
2019-01-19T08:29:18.416Z,133.27
2019-01-19T08:31:48.241Z,128.47
2019-01-19T08:34:18.405Z,137.87
2019-01-19T08:36:49.272Z,141.07
2019-01-19T08:39:19.562Z,135.27
2019-01-19T08:41:49.325Z,139.57
2019-01-19T08:44:18.933Z,138.20
2019-01-19T08:46:48.414Z,129.97
2019-01-19T08:49:18.158Z,143.40
2019-01-19T08:51:47.889Z,142.10
2019-01-19T08:54:17.864Z,144.83
2019-01-19T08:56:47.700Z,152.97
2019-01-19T08:59:17.065Z,153.83
2019-01-19T09:01:46.686Z,149.37
2019-01-19T09:04:16.205Z,163.50
2019-01-19T09:06:46.009Z,159.27
2019-01-19T09:09:15.849Z,155.40
2019-01-19T09:11:45.877Z,159.87
2019-01-19T09:14:19.131Z,167.97
2019-01-19T09:16:52.144Z,160.03
2019-01-19T09:19:23.476Z,163.23
2019-01-19T09:21:53.765Z,158.10
2019-01-19T09:24:24.242Z,158.87
2019-01-19T09:26:54.714Z,150.67
2019-01-19T09:29:25.581Z,157.70
2019-01-19T09:31:55.083Z,208.57
2019-01-19T09:34:24.588Z,167.27
2019-01-19T09:36:54.061Z,148.77
2019-01-19T09:39:25.127Z,163.07
2019-01-19T09:41:55.033Z,132.70
2019-01-19T09:44:24.489Z,125.60
2019-01-19T09:46:54.193Z,129.50
2019-01-19T09:49:24.093Z,130.57
2019-01-19T09:51:53.846Z,126.17
2019-01-19T09:54:24.925Z,127.33
2019-01-19T09:56:54.435Z,111.40
2019-01-19T09:59:23.885Z,99.40
2019-01-19T10:01:53.760Z,105.90
2019-01-19T10:04:23.420Z,103.17
2019-01-19T10:06:52.886Z,98.70
2019-01-19T10:09:22.924Z,102.43
2019-01-19T10:11:52.432Z,93.53
2019-01-19T10:14:21.884Z,86.97
2019-01-19T10:16:51.994Z,90.13
2019-01-19T10:19:21.628Z,91.13
2019-01-19T10:21:51.129Z,87.93
2019-01-19T10:24:20.905Z,67.37
2019-01-19T10:26:50.388Z,65.07
2019-01-19T10:29:20.335Z,59.33
2019-01-19T10:31:50.079Z,60.67
2019-01-19T10:34:19.475Z,61.53
2019-01-19T10:36:48.813Z,56.40
2019-01-19T10:39:18.379Z,57.03
2019-01-19T10:41:49.104Z,49.20
2019-01-19T10:44:18.439Z,53.37
2019-01-19T10:46:48.780Z,56.27
2019-01-19T10:49:18.626Z,54.03
2019-01-19T10:51:48.100Z,56.43
2019-01-19T10:54:17.856Z,53.53
2019-01-19T10:56:47.337Z,55.47
2019-01-19T10:59:16.789Z,50.20
2019-01-19T11:01:46.938Z,51.70
2019-01-19T11:04:16.577Z,56.63
2019-01-19T11:06:46.333Z,54.87
2019-01-19T11:09:15.769Z,45.57
2019-01-19T11:11:45.245Z,40.90
2019-01-19T11:14:14.697Z,40.10
2019-01-19T11:16:44.158Z,34.77
2019-01-19T11:19:13.642Z,36.77
2019-01-19T11:21:43.089Z,38.70
2019-01-19T11:24:12.559Z,38.13
2019-01-19T11:26:42.186Z,37.43
2019-01-19T11:29:11.541Z,38.97
2019-01-19T11:31:40.889Z,38.63
2019-01-19T11:34:10.564Z,37.47
2019-01-19T11:36:40.525Z,34.03
2019-01-19T11:39:09.972Z,66.83
2019-01-19T11:41:39.476Z,42.33
2019-01-19T11:44:10.379Z,31.23
2019-01-19T11:46:39.830Z,31.53
2019-01-19T11:49:09.697Z,27.20
2019-01-19T11:51:39.366Z,26.30
2019-01-19T11:54:09.305Z,24.43
2019-01-19T11:56:38.799Z,22.07
2019-01-19T11:59:08.528Z,24.13
2019-01-19T12:01:37.983Z,23.00
2019-01-19T12:04:07.380Z,25.43
2019-01-19T12:06:37.093Z,22.80
2019-01-19T12:09:07.733Z,22.73
2019-01-19T12:11:37.214Z,21.30
2019-01-19T12:14:07.144Z,21.87
2019-01-19T12:16:36.774Z,24.23
2019-01-19T12:19:06.149Z,21.33
2019-01-19T12:21:35.601Z,24.57
2019-01-19T12:24:05.735Z,19.47
2019-01-19T12:26:35.443Z,22.27
2019-01-19T12:29:04.809Z,19.33
2019-01-19T12:31:34.253Z,15.17
2019-01-19T12:34:03.726Z,18.10
2019-01-19T12:36:33.165Z,14.17
2019-01-19T12:39:02.729Z,15.33
2019-01-19T12:41:32.429Z,15.20
2019-01-19T12:44:01.893Z,14.07
2019-01-19T12:46:32.191Z,12.53
2019-01-19T12:49:01.832Z,13.10
2019-01-19T12:51:31.170Z,12.80
2019-01-19T12:54:00.520Z,13.40
2019-01-19T12:56:30.160Z,15.63
2019-01-19T12:58:59.630Z,12.80
2019-01-19T13:01:29.302Z,16.37
2019-01-19T13:03:59.049Z,16.70
2019-01-19T13:06:31.412Z,15.57
2019-01-19T13:09:00.940Z,16.70
2019-01-19T13:11:45.045Z,16.10
2019-01-19T13:14:14.497Z,17.40
2019-01-19T13:17:19.677Z,17.33
2019-01-19T13:19:57.806Z,17.27
2019-01-19T13:22:39.227Z,15.80
2019-01-19T13:25:27.424Z,19.27
2019-01-19T13:28:19.043Z,12.23
2019-01-19T13:31:06.895Z,14.13
2019-01-19T13:33:41.978Z,13.40
2019-01-19T13:36:22.881Z,12.90
2019-01-19T13:38:55.122Z,12.37
2019-01-19T13:41:33.635Z,12.90
2019-01-19T13:44:14.665Z,13.93
2019-01-19T13:47:02.100Z,10.70
2019-01-19T13:49:49.335Z,15.80
2019-01-19T13:52:23.018Z,16.17
2019-01-19T13:55:22.849Z,13.33
2019-01-19T13:58:04.232Z,15.17
2019-01-19T14:03:54.084Z,12.87
2019-01-19T14:06:40.561Z,10.37
2019-01-19T14:09:20.105Z,11.23
2019-01-19T14:12:09.747Z,9.33
2019-01-19T14:14:44.464Z,15.60
2019-01-19T14:17:44.621Z,9.93
2019-01-19T14:20:49.785Z,11.57
2019-01-19T14:23:33.556Z,12.53
2019-01-19T14:26:35.489Z,12.57
2019-01-19T14:29:20.054Z,12.83
2019-01-19T14:32:01.584Z,12.63
2019-01-19T14:34:33.797Z,14.07
2019-01-19T14:37:17.629Z,9.97
2019-01-19T14:40:04.898Z,12.60
2019-01-19T14:42:53.461Z,8.07
2019-01-19T14:45:30.069Z,8.90
2019-01-19T14:48:09.138Z,10.20
2019-01-19T14:51:02.761Z,13.30
2019-01-19T14:53:56.831Z,14.00
2019-01-19T14:56:49.877Z,14.03
2019-01-19T14:59:25.027Z,15.37
2019-01-19T15:02:14.889Z,14.57
2019-01-19T15:04:49.926Z,16.20
2019-01-19T15:07:31.201Z,19.30
2019-01-19T15:10:23.873Z,15.83
2019-01-19T15:13:01.858Z,18.00
2019-01-19T15:15:56.370Z,21.27
2019-01-19T15:18:47.904Z,24.80
2019-01-19T15:21:32.493Z,22.50
2019-01-19T15:24:16.616Z,25.80
2019-01-19T15:27:06.797Z,23.40
2019-01-19T15:29:47.849Z,19.40
2019-01-19T15:32:37.892Z,170.20
2019-01-19T15:35:10.103Z,33.33
2019-01-19T15:37:45.424Z,24.17
2019-01-19T15:40:24.251Z,24.83
2019-01-19T15:43:14.053Z,27.20
2019-01-19T15:45:46.298Z,26.13
2019-01-19T15:48:33.548Z,29.63
2019-01-19T15:51:06.593Z,26.93
2019-01-19T15:53:42.865Z,27.93
2019-01-19T15:56:44.419Z,25.77
2019-01-19T15:59:28.450Z,27.67
2019-01-19T16:02:16.018Z,30.33
2019-01-19T16:04:48.538Z,29.93
2019-01-19T16:07:50.902Z,32.23
2019-01-19T16:10:39.565Z,34.50
2019-01-19T16:13:32.661Z,35.00
2019-01-19T16:16:12.045Z,33.77
2019-01-19T16:18:47.261Z,34.10
2019-01-19T16:21:53.954Z,34.63
2019-01-19T16:24:47.684Z,44.67
2019-01-19T16:27:28.885Z,41.37
2019-01-19T16:30:10.285Z,37.60
2019-01-19T16:33:03.898Z,42.27
2019-01-19T16:35:58.163Z,51.93
2019-01-19T16:38:48.769Z,43.80
2019-01-19T16:41:30.261Z,40.90
2019-01-19T16:44:20.747Z,45.40
2019-01-19T16:47:02.469Z,43.97
2019-01-19T16:49:56.126Z,45.00
2019-01-19T16:52:34.830Z,46.80
2019-01-19T16:55:23.773Z,42.53
2019-01-19T16:58:04.886Z,48.30
2019-01-19T17:00:56.528Z,45.50
2019-01-19T17:03:47.323Z,50.43
2019-01-19T17:06:40.486Z,49.80
2019-01-19T17:09:25.237Z,46.67
2019-01-19T17:11:57.429Z,48.13
2019-01-19T17:14:56.681Z,47.90
2019-01-19T17:17:47.046Z,50.50
2019-01-19T17:20:19.752Z,51.40
2019-01-19T17:22:54.859Z,58.10
2019-01-19T17:25:46.885Z,54.70
2019-01-19T17:28:36.195Z,51.30
2019-01-19T17:31:11.635Z,51.43
2019-01-19T17:34:03.672Z,50.33
2019-01-19T17:36:38.973Z,53.07
2019-01-19T17:39:20.570Z,55.80
2019-01-19T17:42:16.960Z,53.17
2019-01-19T17:44:52.693Z,57.23
2019-01-19T17:47:24.820Z,52.30
2019-01-19T17:50:00.184Z,53.77
2019-01-19T17:52:35.337Z,55.37
2019-01-19T17:55:22.329Z,61.57
2019-01-19T17:58:13.069Z,69.20
2019-01-19T18:01:22.721Z,65.57
2019-01-19T18:04:13.688Z,64.80
2019-01-19T18:06:49.078Z,59.80
2019-01-19T18:09:27.236Z,61.97
2019-01-19T18:12:08.309Z,56.07
2019-01-19T18:15:10.702Z,61.10
2019-01-19T18:17:43.044Z,62.13
2019-01-19T18:20:31.361Z,68.73
2019-01-19T18:23:16.068Z,57.77
2019-01-19T18:26:03.577Z,58.93
2019-01-19T18:28:58.800Z,60.63
2019-01-19T18:31:52.639Z,54.43
2019-01-19T18:34:31.563Z,60.50
2019-01-19T18:37:10.057Z,58.23
2019-01-19T18:39:46.051Z,54.77
2019-01-19T18:42:39.095Z,58.23
2019-01-19T18:45:20.464Z,58.87
2019-01-19T18:48:02.711Z,58.40
2019-01-19T18:50:51.654Z,68.90
2019-01-19T18:53:36.682Z,64.17
2019-01-19T18:56:44.137Z,65.83
2019-01-19T18:59:41.229Z,62.80
2019-01-19T19:02:16.654Z,58.50
2019-01-19T19:05:12.697Z,60.00
2019-01-19T19:08:01.904Z,64.00
2019-01-19T19:10:51.096Z,60.40
2019-01-19T19:13:35.806Z,64.80
2019-01-19T19:16:31.324Z,62.17
2019-01-19T19:19:21.490Z,65.90
2019-01-19T19:21:59.516Z,66.57
2019-01-19T19:24:37.711Z,61.77
2019-01-19T19:27:18.930Z,63.53
2019-01-19T19:30:00.688Z,67.90
2019-01-19T19:32:39.699Z,66.93
2019-01-19T19:35:18.191Z,67.07
2019-01-19T19:38:10.419Z,74.13
2019-01-19T19:41:05.730Z,65.33
2019-01-19T19:43:40.884Z,66.33
2019-01-19T19:46:15.771Z,61.20
2019-01-19T19:48:56.954Z,70.20
2019-01-19T19:51:32.790Z,71.83
2019-01-19T19:54:02.310Z,66.30
2019-01-19T19:56:30.245Z,68.33
2019-01-19T19:58:59.617Z,66.87
2019-01-19T20:01:30.381Z,66.17
2019-01-19T20:04:00.637Z,71.47
2019-01-19T20:06:33.025Z,58.67
2019-01-19T20:09:02.414Z,61.77
2019-01-19T20:11:32.346Z,66.90
2019-01-19T20:14:02.257Z,69.73
2019-01-19T20:16:31.993Z,70.50
2019-01-19T20:19:02.093Z,65.33
2019-01-19T20:21:32.067Z,74.03
2019-01-19T20:24:02.275Z,71.13
2019-01-19T20:26:31.942Z,75.47
2019-01-19T20:29:01.440Z,73.20
2019-01-19T20:31:31.233Z,76.70
2019-01-19T20:34:01.507Z,71.97
2019-01-19T20:36:31.184Z,67.07
2019-01-19T20:39:01.232Z,77.53
2019-01-19T20:41:30.909Z,75.03
2019-01-19T20:44:00.717Z,74.30
2019-01-19T20:46:30.549Z,66.43
2019-01-19T20:49:00.314Z,77.27
2019-01-19T20:51:29.675Z,74.97
2019-01-19T20:53:59.285Z,80.07
2019-01-19T20:56:30.623Z,81.37
2019-01-19T20:59:00.621Z,81.23
2019-01-19T21:01:30.647Z,80.67
2019-01-19T21:04:01.338Z,84.43
2019-01-19T21:06:31.170Z,86.80
2019-01-19T21:09:01.246Z,77.37
2019-01-19T21:11:30.989Z,77.37
2019-01-19T21:14:01.323Z,85.90
2019-01-19T21:16:30.809Z,77.00
2019-01-19T21:19:00.676Z,88.10
2019-01-19T21:21:30.121Z,92.80
2019-01-19T21:23:59.990Z,86.77
2019-01-19T21:26:29.344Z,93.50
2019-01-19T21:28:59.359Z,96.00
2019-01-19T21:31:29.197Z,89.20
2019-01-19T21:33:59.814Z,88.63
2019-01-19T21:36:29.411Z,82.97
2019-01-19T21:38:59.072Z,82.53
2019-01-19T21:41:28.540Z,80.10
2019-01-19T21:43:58.568Z,83.00
2019-01-19T21:46:27.982Z,91.57
2019-01-19T21:48:57.838Z,79.97
2019-01-19T21:51:27.719Z,76.47
2019-01-19T21:53:57.733Z,78.47
2019-01-19T21:56:27.897Z,73.37
2019-01-19T21:58:58.335Z,69.03
2019-01-19T22:01:28.987Z,78.57
2019-01-19T22:03:59.108Z,75.10
2019-01-19T22:06:29.309Z,73.73
2019-01-19T22:08:58.826Z,81.67
2019-01-19T22:11:29.265Z,83.83
2019-01-19T22:13:59.516Z,81.80
2019-01-19T22:16:30.336Z,77.30
2019-01-19T22:18:59.504Z,78.47
2019-01-19T22:21:30.854Z,82.47
2019-01-19T22:24:00.874Z,82.00
2019-01-19T22:26:31.174Z,78.90
2019-01-19T22:29:01.212Z,78.87
2019-01-19T22:31:31.883Z,76.10
2019-01-19T22:34:01.545Z,82.27
2019-01-19T22:36:32.793Z,81.70
2019-01-19T22:39:02.244Z,82.67
2019-01-19T22:41:32.411Z,76.77
2019-01-19T22:44:05.857Z,77.03
2019-01-19T22:46:36.561Z,76.17
2019-01-19T22:49:08.474Z,84.37
2019-01-19T22:51:39.024Z,92.60
2019-01-19T22:54:12.172Z,86.47
2019-01-19T22:56:42.143Z,79.60
2019-01-19T22:59:12.449Z,84.03
2019-01-19T23:01:42.818Z,84.17
2019-01-19T23:04:15.794Z,79.80
2019-01-19T23:06:48.324Z,82.53
2019-01-19T23:09:18.531Z,87.17
2019-01-19T23:11:49.089Z,85.57
2019-01-19T23:14:24.634Z,82.07
2019-01-19T23:16:53.990Z,85.47
2019-01-19T23:19:27.092Z,82.70
2019-01-19T23:21:57.789Z,100.63
2019-01-19T23:24:33.523Z,91.23
2019-01-19T23:27:04.501Z,95.93
2019-01-19T23:29:33.725Z,108.50
2019-01-19T23:32:03.230Z,96.77
2019-01-19T23:34:32.277Z,89.37
2019-01-19T23:37:01.330Z,89.40
2019-01-19T23:39:30.764Z,87.50
2019-01-19T23:41:59.796Z,87.70
2019-01-19T23:44:29.082Z,89.83
2019-01-19T23:46:59.197Z,88.53
2019-01-19T23:49:29.068Z,85.27
2019-01-19T23:51:58.524Z,86.60
2019-01-19T23:54:28.162Z,93.73
2019-01-19T23:56:57.897Z,83.87
2019-01-19T23:59:27.472Z,89.43
